ドーハ の空港の天気 - METARとTAF

ドーハ国際空港 ( OTBD / DOH ) - カタール ドーハ
飛行場実況気象(Metar)
観測時間09/25 06:30 AST (09/25 03:30 UTC)
風向・風速北西 2m/s
視程6000m
天気現象
なし
気温34℃
湿度60%
気圧1007hPa
METAROTBD 250330Z 32003KT 280V350 6000 NSC 34/25 Q1007 NOSIG
過去の天気等 Google飛行場航空写真 Wunderground天気予報

過去48時間のMETAR

飛行場予報(TAF)
発表時間: 9/25 02:04 AST (9/24 23:04 UTC)
予報対象時間: 25日3時 AST ~ 26日9時 AST
風向・風速北西 4m/s
視程9000m
なし
25日3時 AST ~ 25日7時 AST に 確率 30% で一時的に
風向・風速南南西 4m/s
視程5000m
天気現象煙霧
25日10時 AST ~ 25日12時 AST に徐々に
風向・風速北 5m/s
25日15時 AST ~ 25日17時 AST に徐々に
風向・風速東南東 5m/s
TAF OTBD 242304Z 2500/2606 31008KT 9000 NSC
PROB30 TEMPO 2500/2504 21007KT 5000 HZ
BECMG 2507/2509 01009KT
BECMG 2512/2514 11010KT